createdAt,value
2022-11-19T00:01:36.025Z,45.33
2022-11-19T00:04:07.065Z,47.77
2022-11-19T00:06:33.655Z,46.83
2022-11-19T00:09:00.229Z,43.83
2022-11-19T00:11:28.314Z,46.70
2022-11-19T00:13:54.807Z,44.50
2022-11-19T00:16:21.577Z,46.03
2022-11-19T00:18:48.089Z,43.23
2022-11-19T00:21:14.666Z,43.37
2022-11-19T00:23:41.255Z,37.60
2022-11-19T00:26:10.244Z,36.63
2022-11-19T00:28:37.464Z,36.20
2022-11-19T00:31:09.691Z,38.17
2022-11-19T00:33:37.621Z,32.90
2022-11-19T00:36:06.567Z,31.73
2022-11-19T00:38:33.706Z,35.57
2022-11-19T00:41:00.875Z,31.93
2022-11-19T00:43:28.065Z,32.13
2022-11-19T00:45:54.654Z,31.07
2022-11-19T00:48:21.241Z,35.03
2022-11-19T00:50:47.764Z,31.27
2022-11-19T00:53:14.436Z,28.83
2022-11-19T00:55:40.994Z,28.40
2022-11-19T00:58:07.677Z,31.53
2022-11-19T01:00:34.321Z,26.83
2022-11-19T01:03:00.928Z,27.63
2022-11-19T01:05:27.532Z,29.33
2022-11-19T01:07:54.225Z,26.50
2022-11-19T01:10:20.886Z,26.53
2022-11-19T01:12:48.108Z,23.30
2022-11-19T01:15:14.787Z,23.70
2022-11-19T01:17:41.407Z,25.47
2022-11-19T01:20:08.788Z,22.07
2022-11-19T01:22:35.506Z,23.80
2022-11-19T01:25:02.075Z,22.40
2022-11-19T01:27:28.703Z,22.23
2022-11-19T01:29:55.336Z,22.13
2022-11-19T01:32:21.969Z,23.20
2022-11-19T01:34:48.532Z,21.37
2022-11-19T01:37:15.370Z,22.57
2022-11-19T01:39:41.939Z,21.40
2022-11-19T01:42:19.528Z,19.73
2022-11-19T01:45:04.289Z,22.40
2022-11-19T01:47:31.128Z,18.27
2022-11-19T01:49:57.825Z,20.33
2022-11-19T01:52:24.483Z,19.83
2022-11-19T01:54:54.389Z,19.33
2022-11-19T01:57:21.667Z,21.30
2022-11-19T01:59:51.632Z,22.27
2022-11-19T02:02:19.902Z,17.60
2022-11-19T02:04:48.318Z,18.20
2022-11-19T02:07:21.030Z,18.03
2022-11-19T02:09:47.792Z,19.10
2022-11-19T02:12:41.882Z,18.00
2022-11-19T02:16:16.023Z,16.87
2022-11-19T02:18:52.219Z,15.10
2022-11-19T02:21:24.493Z,18.67
2022-11-19T02:24:09.270Z,15.10
2022-11-19T02:26:57.374Z,16.33
2022-11-19T02:29:29.613Z,15.53
2022-11-19T02:32:02.409Z,15.80
2022-11-19T02:34:33.686Z,15.93
2022-11-19T02:37:03.427Z,15.43
2022-11-19T02:39:45.187Z,13.50
2022-11-19T02:42:19.383Z,14.27
2022-11-19T02:44:51.498Z,15.40
2022-11-19T02:47:22.153Z,16.33
2022-11-19T02:49:51.386Z,15.90
2022-11-19T02:52:19.249Z,14.20
2022-11-19T02:54:45.926Z,16.20
2022-11-19T02:57:13.983Z,14.07
2022-11-19T02:59:46.813Z,15.00
2022-11-19T03:02:16.975Z,14.27
2022-11-19T03:04:43.825Z,13.10
2022-11-19T03:07:14.529Z,15.30
2022-11-19T03:09:46.559Z,14.53
2022-11-19T03:12:23.433Z,13.03
2022-11-19T03:15:05.450Z,14.83
2022-11-19T03:18:02.784Z,14.70
2022-11-19T03:20:35.788Z,13.07
2022-11-19T03:23:05.545Z,15.27
2022-11-19T03:25:38.529Z,14.30
2022-11-19T03:28:16.781Z,12.07
2022-11-19T03:30:46.236Z,12.90
2022-11-19T03:33:23.466Z,12.77
2022-11-19T03:35:55.889Z,13.33
2022-11-19T03:38:31.580Z,13.10
2022-11-19T03:40:59.377Z,13.10
2022-11-19T03:43:29.227Z,13.90
2022-11-19T03:45:58.907Z,11.50
2022-11-19T03:48:27.834Z,12.27
2022-11-19T03:51:05.174Z,12.20
2022-11-19T03:53:31.866Z,11.53
2022-11-19T03:56:09.583Z,12.80
2022-11-19T03:58:41.854Z,13.40
2022-11-19T04:01:09.486Z,13.00
2022-11-19T04:03:36.173Z,13.60
2022-11-19T04:06:03.938Z,12.10
2022-11-19T04:08:30.956Z,11.43
2022-11-19T04:13:24.590Z,11.97
2022-11-19T04:15:51.606Z,10.43
2022-11-19T04:18:18.239Z,9.70
2022-11-19T04:20:45.596Z,12.03
2022-11-19T04:23:12.158Z,10.63
2022-11-19T04:25:39.705Z,11.37
2022-11-19T04:28:06.276Z,11.63
2022-11-19T04:30:32.986Z,11.43
2022-11-19T04:32:59.693Z,13.23
2022-11-19T04:35:26.364Z,11.60
2022-11-19T04:37:52.959Z,10.97
2022-11-19T04:40:19.747Z,12.47
2022-11-19T04:42:46.321Z,12.73
2022-11-19T04:45:13.062Z,10.83
2022-11-19T04:47:40.099Z,11.57
2022-11-19T04:50:07.509Z,12.50
2022-11-19T04:52:39.266Z,11.20
2022-11-19T04:55:07.807Z,11.70
2022-11-19T04:57:34.388Z,11.73
2022-11-19T05:00:00.986Z,11.83
2022-11-19T05:02:27.595Z,13.90
2022-11-19T05:04:54.246Z,11.60
2022-11-19T05:07:20.886Z,12.03
2022-11-19T05:09:47.614Z,11.47
2022-11-19T05:12:14.209Z,12.57
2022-11-19T05:14:40.918Z,12.13
2022-11-19T05:17:07.531Z,11.60
2022-11-19T05:19:35.423Z,11.83
2022-11-19T05:22:02.039Z,12.77
2022-11-19T05:24:28.775Z,13.67
2022-11-19T05:26:55.347Z,12.77
2022-11-19T05:29:22.159Z,11.60
2022-11-19T05:31:49.030Z,13.27
2022-11-19T05:34:15.669Z,13.47
2022-11-19T05:36:42.246Z,13.30
2022-11-19T05:39:09.140Z,13.27
2022-11-19T05:41:35.761Z,13.23
2022-11-19T05:44:02.920Z,14.07
2022-11-19T05:46:29.595Z,13.20
2022-11-19T05:48:56.291Z,11.93
2022-11-19T05:51:22.887Z,13.90
2022-11-19T05:53:49.669Z,13.90
2022-11-19T05:56:16.316Z,13.70
2022-11-19T05:58:43.023Z,12.60
2022-11-19T06:01:09.639Z,13.27
2022-11-19T06:03:36.314Z,14.27
2022-11-19T06:06:02.977Z,14.67
2022-11-19T06:08:29.751Z,13.17
2022-11-19T06:10:56.320Z,12.60
2022-11-19T06:13:23.054Z,14.10
2022-11-19T06:15:49.692Z,13.47
2022-11-19T06:18:16.298Z,14.17
2022-11-19T06:20:42.875Z,14.77
2022-11-19T06:23:09.597Z,15.20
2022-11-19T06:25:36.399Z,14.60
2022-11-19T06:28:03.253Z,14.37
2022-11-19T06:30:29.867Z,15.03
2022-11-19T06:32:56.483Z,14.27
2022-11-19T06:35:23.121Z,14.43
2022-11-19T06:37:50.309Z,14.63
2022-11-19T06:40:16.994Z,15.57
2022-11-19T06:42:48.442Z,16.07
2022-11-19T06:45:17.665Z,13.60
2022-11-19T06:47:47.712Z,16.33
2022-11-19T06:50:14.421Z,15.77
2022-11-19T06:52:41.139Z,13.07
2022-11-19T06:55:08.204Z,15.60
2022-11-19T06:57:34.780Z,15.30
2022-11-19T07:00:01.738Z,14.33
2022-11-19T07:02:28.502Z,16.60
2022-11-19T07:04:55.126Z,15.57
2022-11-19T07:07:21.833Z,14.40
2022-11-19T07:09:48.570Z,15.37
2022-11-19T07:12:15.200Z,15.63
2022-11-19T07:14:41.951Z,14.73
2022-11-19T07:17:08.558Z,15.17
2022-11-19T07:19:35.218Z,14.57
2022-11-19T07:22:01.972Z,15.57
2022-11-19T07:24:28.675Z,15.77
2022-11-19T07:26:55.828Z,14.70
2022-11-19T07:29:22.812Z,15.83
2022-11-19T07:31:49.572Z,15.53
2022-11-19T07:34:17.460Z,15.47
2022-11-19T07:36:44.415Z,16.03
2022-11-19T07:39:11.296Z,18.33
2022-11-19T07:41:38.187Z,15.63
2022-11-19T07:44:05.116Z,16.53
2022-11-19T07:46:31.721Z,16.23
2022-11-19T07:48:59.167Z,17.17
2022-11-19T07:51:27.127Z,16.17
2022-11-19T07:53:55.449Z,14.83
2022-11-19T07:56:22.552Z,15.07
2022-11-19T07:58:49.398Z,16.90
2022-11-19T08:01:19.002Z,16.27
2022-11-19T08:03:51.853Z,15.90
2022-11-19T08:06:26.563Z,15.40
2022-11-19T08:08:55.116Z,15.13
2022-11-19T08:11:22.703Z,15.03
2022-11-19T08:13:49.346Z,15.37
2022-11-19T08:16:17.383Z,15.57
2022-11-19T08:18:44.672Z,15.07
2022-11-19T08:21:12.005Z,13.43
2022-11-19T08:23:39.432Z,14.70
2022-11-19T08:26:07.297Z,15.00
2022-11-19T08:28:34.473Z,16.03
2022-11-19T08:31:08.318Z,13.37
2022-11-19T08:33:35.826Z,14.77
2022-11-19T08:36:02.677Z,15.47
2022-11-19T08:38:30.735Z,14.63
2022-11-19T08:40:58.978Z,11.93
2022-11-19T08:43:27.321Z,14.50
2022-11-19T08:45:53.891Z,14.30
2022-11-19T08:48:20.637Z,14.33
2022-11-19T08:50:47.275Z,14.53
2022-11-19T08:53:14.003Z,14.20
2022-11-19T08:55:40.803Z,12.30
2022-11-19T08:58:08.194Z,14.13
2022-11-19T09:00:36.870Z,14.40
2022-11-19T09:03:04.129Z,14.50
2022-11-19T09:05:30.785Z,13.60
2022-11-19T09:07:57.662Z,15.50
2022-11-19T09:10:24.467Z,13.87
2022-11-19T09:12:51.198Z,14.10
2022-11-19T09:15:17.845Z,15.10
2022-11-19T09:17:47.070Z,14.23
2022-11-19T09:20:14.281Z,15.47
2022-11-19T09:22:41.070Z,15.60
2022-11-19T09:25:08.218Z,15.70
2022-11-19T09:27:36.459Z,14.23
2022-11-19T09:30:04.771Z,14.17
2022-11-19T09:32:31.533Z,14.27
2022-11-19T09:34:58.139Z,13.50
2022-11-19T09:37:24.770Z,12.73
2022-11-19T09:39:51.603Z,13.63
2022-11-19T09:42:42.847Z,13.93
2022-11-19T09:45:33.307Z,11.83
2022-11-19T09:48:17.976Z,12.47
2022-11-19T09:50:55.751Z,12.37
2022-11-19T09:53:23.299Z,13.37
2022-11-19T09:55:53.463Z,13.93
2022-11-19T09:58:30.694Z,12.23
2022-11-19T10:00:57.342Z,12.37
2022-11-19T10:03:31.576Z,15.13
2022-11-19T10:06:15.317Z,14.37
2022-11-19T10:08:41.952Z,13.30
2022-11-19T10:11:33.572Z,15.03
2022-11-19T10:14:44.936Z,14.80
2022-11-19T10:17:33.454Z,13.93
2022-11-19T10:20:18.721Z,16.17
2022-11-19T10:22:57.733Z,16.27
2022-11-19T10:25:33.661Z,14.37
2022-11-19T10:28:21.036Z,14.83
2022-11-19T10:31:27.301Z,13.93
2022-11-19T10:34:19.537Z,14.27
2022-11-19T10:36:52.553Z,14.53
2022-11-19T10:39:19.500Z,14.00
2022-11-19T10:42:09.014Z,14.00
2022-11-19T10:44:41.387Z,12.33
2022-11-19T10:47:22.043Z,13.73
2022-11-19T10:49:54.024Z,15.33
2022-11-19T10:52:31.148Z,13.03
2022-11-19T10:55:21.126Z,12.70
2022-11-19T10:57:50.740Z,12.40
2022-11-19T11:00:17.935Z,12.93
2022-11-19T11:02:57.561Z,13.30
2022-11-19T11:05:24.242Z,13.63
2022-11-19T11:07:57.904Z,12.97
2022-11-19T11:10:40.372Z,13.37
2022-11-19T11:13:16.252Z,13.60
2022-11-19T11:15:47.845Z,12.87
2022-11-19T11:18:15.362Z,12.80
2022-11-19T11:20:48.054Z,13.13
2022-11-19T11:23:52.038Z,12.83
2022-11-19T11:26:22.882Z,12.77
2022-11-19T11:29:01.991Z,12.60
2022-11-19T11:31:31.767Z,12.67
2022-11-19T11:33:58.419Z,11.50
2022-11-19T11:36:27.400Z,10.73
2022-11-19T11:38:56.587Z,11.23
2022-11-19T11:44:25.872Z,12.87
2022-11-19T11:46:53.879Z,11.57
2022-11-19T11:50:14.165Z,10.83
2022-11-19T11:52:42.373Z,12.13
2022-11-19T11:55:23.748Z,10.13
2022-11-19T11:57:59.066Z,10.50
2022-11-19T12:00:40.217Z,9.93
2022-11-19T12:03:15.506Z,9.67
2022-11-19T12:05:50.589Z,10.27
2022-11-19T12:08:29.108Z,8.83
2022-11-19T12:11:07.420Z,11.57
2022-11-19T12:13:52.345Z,10.57
2022-11-19T12:16:39.884Z,12.17
2022-11-19T12:19:19.765Z,10.67
2022-11-19T12:22:35.681Z,10.37
2022-11-19T12:25:08.341Z,10.50
2022-11-19T12:28:14.569Z,11.47
2022-11-19T12:30:51.251Z,9.63
2022-11-19T12:33:36.026Z,10.73
2022-11-19T12:36:19.087Z,9.47
2022-11-19T12:38:45.685Z,11.33
2022-11-19T12:41:52.147Z,10.17
2022-11-19T12:44:37.422Z,9.30
2022-11-19T12:47:25.179Z,10.17
2022-11-19T12:50:03.344Z,10.40
2022-11-19T12:52:51.938Z,9.73
2022-11-19T12:55:36.159Z,10.23
2022-11-19T12:58:12.261Z,10.40
2022-11-19T13:00:46.721Z,10.63
2022-11-19T13:03:20.794Z,12.07
2022-11-19T13:06:02.666Z,11.23
2022-11-19T13:08:41.710Z,10.67
2022-11-19T13:11:17.295Z,11.87
2022-11-19T13:13:49.202Z,11.60
2022-11-19T13:16:20.050Z,10.13
2022-11-19T13:18:50.474Z,12.70
2022-11-19T13:21:43.341Z,10.57
2022-11-19T13:24:28.244Z,11.43
2022-11-19T13:27:00.639Z,11.60
2022-11-19T13:29:33.037Z,10.33
2022-11-19T13:32:11.065Z,11.17
2022-11-19T13:35:00.914Z,10.47
2022-11-19T13:37:45.733Z,9.33
2022-11-19T13:40:26.426Z,12.13
2022-11-19T13:43:10.443Z,12.40
2022-11-19T13:45:46.798Z,10.90
2022-11-19T13:48:21.926Z,10.77
2022-11-19T13:50:52.363Z,10.70
2022-11-19T13:53:23.945Z,11.20
2022-11-19T13:55:55.970Z,11.30
2022-11-19T13:58:34.652Z,11.13
2022-11-19T14:01:08.460Z,10.87
2022-11-19T14:03:56.963Z,12.13
2022-11-19T14:06:52.994Z,12.97
2022-11-19T14:09:34.043Z,12.37
2022-11-19T14:12:23.847Z,11.80
2022-11-19T14:15:00.252Z,11.67
2022-11-19T14:18:06.235Z,10.80
2022-11-19T14:20:37.868Z,10.97
2022-11-19T14:23:04.529Z,10.97
2022-11-19T14:25:44.405Z,11.77
2022-11-19T14:28:47.965Z,10.60
2022-11-19T14:31:16.473Z,13.67
2022-11-19T14:33:48.778Z,10.77
2022-11-19T14:36:22.042Z,12.43
2022-11-19T14:38:56.846Z,12.33
2022-11-19T14:41:28.359Z,12.30
2022-11-19T14:44:34.066Z,12.70
2022-11-19T14:47:22.173Z,13.57
2022-11-19T14:49:54.012Z,12.27
2022-11-19T14:52:24.474Z,12.70
2022-11-19T14:54:56.995Z,14.47
2022-11-19T14:57:26.140Z,13.07
2022-11-19T14:59:58.919Z,13.40
2022-11-19T15:02:35.247Z,13.47
2022-11-19T15:05:14.827Z,13.40
2022-11-19T15:07:45.468Z,14.17
2022-11-19T15:13:25.583Z,15.00
2022-11-19T15:16:07.159Z,13.57
2022-11-19T15:18:36.848Z,15.60
2022-11-19T15:21:29.952Z,15.03
2022-11-19T15:24:21.500Z,13.97
2022-11-19T15:27:19.007Z,13.03
2022-11-19T15:30:20.952Z,15.70
2022-11-19T15:33:06.332Z,15.03
2022-11-19T15:36:17.568Z,13.33
2022-11-19T15:38:59.834Z,13.83
2022-11-19T15:41:31.536Z,14.83
2022-11-19T15:44:01.566Z,13.23
2022-11-19T15:46:34.094Z,25.47
2022-11-19T15:49:11.563Z,18.10
2022-11-19T15:51:56.539Z,21.33
2022-11-19T15:54:28.291Z,15.90
2022-11-19T15:57:16.959Z,13.03
2022-11-19T15:59:47.697Z,17.10
2022-11-19T16:02:32.423Z,38.03
2022-11-19T16:04:59.246Z,18.00
2022-11-19T16:07:28.914Z,15.20
2022-11-19T16:09:57.378Z,13.53
2022-11-19T16:12:26.222Z,13.37
2022-11-19T16:14:53.712Z,12.63
2022-11-19T16:17:23.906Z,13.63
2022-11-19T16:20:10.090Z,13.63
2022-11-19T16:22:57.111Z,13.53
2022-11-19T16:25:39.991Z,13.53
2022-11-19T16:28:11.459Z,17.10
2022-11-19T16:30:48.144Z,14.20
2022-11-19T16:33:18.985Z,14.30
2022-11-19T16:35:51.227Z,27.30
2022-11-19T16:38:26.503Z,23.97
2022-11-19T16:40:54.899Z,24.23
2022-11-19T16:43:21.550Z,18.20
2022-11-19T16:45:49.209Z,15.23
2022-11-19T16:48:52.857Z,15.07
2022-11-19T16:51:31.561Z,19.43
2022-11-19T16:53:58.875Z,15.27
2022-11-19T16:56:26.367Z,15.77
2022-11-19T16:58:59.152Z,13.80
2022-11-19T17:01:29.431Z,12.30
2022-11-19T17:04:03.899Z,11.87
2022-11-19T17:06:33.363Z,11.87
2022-11-19T17:09:01.018Z,10.77
2022-11-19T17:11:46.001Z,11.37
2022-11-19T17:14:24.931Z,12.43
2022-11-19T17:16:53.333Z,11.77
2022-11-19T17:19:25.270Z,12.63
2022-11-19T17:21:58.675Z,12.43
2022-11-19T17:24:28.130Z,12.77
2022-11-19T17:26:55.360Z,12.43
2022-11-19T17:29:23.899Z,13.40
2022-11-19T17:31:53.754Z,12.83
2022-11-19T17:34:23.359Z,11.53
2022-11-19T17:36:50.055Z,12.57
2022-11-19T17:39:22.520Z,13.13
2022-11-19T17:41:56.174Z,13.57
2022-11-19T17:44:27.631Z,14.67
2022-11-19T17:46:54.278Z,13.77
2022-11-19T17:49:20.886Z,15.13
2022-11-19T17:51:47.589Z,15.43
2022-11-19T17:54:14.172Z,15.47
2022-11-19T17:56:41.058Z,14.50
2022-11-19T17:59:07.764Z,15.47
2022-11-19T18:01:34.862Z,15.13
2022-11-19T18:04:01.537Z,15.57
2022-11-19T18:06:28.284Z,16.07
2022-11-19T18:08:54.854Z,17.23
2022-11-19T18:11:24.108Z,16.90
2022-11-19T18:13:53.207Z,18.13
2022-11-19T18:16:23.215Z,16.20
2022-11-19T18:18:50.427Z,16.63
2022-11-19T18:21:19.567Z,17.60
2022-11-19T18:23:47.887Z,16.33
2022-11-19T18:26:18.994Z,17.40
2022-11-19T18:28:48.846Z,16.63
2022-11-19T18:31:19.755Z,17.43
2022-11-19T18:33:47.656Z,17.10
2022-11-19T18:36:15.178Z,18.83
2022-11-19T18:38:42.766Z,18.83
2022-11-19T18:41:11.124Z,17.23
2022-11-19T18:43:40.061Z,19.40
2022-11-19T18:46:06.850Z,17.37
2022-11-19T18:48:33.459Z,18.63
2022-11-19T18:51:00.223Z,18.73
2022-11-19T18:53:27.387Z,18.63
2022-11-19T18:55:54.586Z,18.93
2022-11-19T18:58:21.316Z,17.53
2022-11-19T19:00:50.847Z,18.43
2022-11-19T19:03:17.522Z,20.03
2022-11-19T19:05:44.086Z,18.37
2022-11-19T19:08:10.760Z,19.87
2022-11-19T19:10:37.335Z,19.10
2022-11-19T19:13:04.362Z,19.33
2022-11-19T19:15:31.028Z,19.20
2022-11-19T19:17:57.686Z,20.60
2022-11-19T19:20:24.251Z,20.77
2022-11-19T19:22:51.058Z,17.70
2022-11-19T19:25:17.739Z,18.43
2022-11-19T19:27:44.431Z,18.07
2022-11-19T19:30:11.670Z,18.33
2022-11-19T19:32:38.339Z,18.03
2022-11-19T19:35:05.530Z,18.73
2022-11-19T19:37:32.542Z,17.43
2022-11-19T19:40:01.439Z,18.87
2022-11-19T19:42:29.195Z,19.23
2022-11-19T19:44:56.344Z,19.57
2022-11-19T19:47:24.374Z,21.60
2022-11-19T19:49:51.255Z,22.90
2022-11-19T19:52:18.230Z,20.87
2022-11-19T19:54:44.899Z,18.57
2022-11-19T19:57:11.618Z,16.90
2022-11-19T19:59:38.237Z,18.37
2022-11-19T20:02:04.984Z,16.20
2022-11-19T20:04:32.060Z,19.40
2022-11-19T20:06:59.007Z,17.40
2022-11-19T20:09:25.911Z,18.33
2022-11-19T20:11:52.751Z,17.70
2022-11-19T20:14:19.458Z,19.97
2022-11-19T20:16:46.295Z,19.53
2022-11-19T20:19:14.252Z,22.53
2022-11-19T20:21:41.415Z,19.53
2022-11-19T20:24:12.142Z,23.83
2022-11-19T20:26:40.820Z,19.77
2022-11-19T20:29:07.861Z,19.83
2022-11-19T20:31:34.829Z,34.70
2022-11-19T20:34:03.815Z,20.83
2022-11-19T20:36:32.865Z,20.63
2022-11-19T20:39:00.245Z,21.30
2022-11-19T20:41:27.972Z,18.93
2022-11-19T20:43:55.633Z,17.40
2022-11-19T20:46:22.549Z,17.43
2022-11-19T20:48:49.159Z,16.07
2022-11-19T20:51:16.092Z,20.30
2022-11-19T20:53:45.522Z,16.97
2022-11-19T20:56:12.802Z,16.53
2022-11-19T20:58:39.504Z,17.97
2022-11-19T21:01:08.775Z,16.43
2022-11-19T21:03:35.346Z,18.60
2022-11-19T21:06:04.180Z,17.20
2022-11-19T21:08:32.228Z,17.07
2022-11-19T21:11:07.926Z,17.17
2022-11-19T21:13:35.072Z,18.07
2022-11-19T21:16:06.741Z,16.70
2022-11-19T21:18:36.817Z,17.93
2022-11-19T21:21:07.247Z,18.07
2022-11-19T21:23:34.223Z,17.37
2022-11-19T21:26:08.994Z,17.93
2022-11-19T21:28:36.701Z,19.57
2022-11-19T21:31:04.158Z,18.70
2022-11-19T21:33:30.796Z,19.93
2022-11-19T21:35:58.792Z,18.77
2022-11-19T21:38:25.913Z,17.67
2022-11-19T21:40:54.421Z,20.53
2022-11-19T21:43:23.030Z,21.23
2022-11-19T21:45:50.458Z,24.50
2022-11-19T21:48:17.195Z,22.37
2022-11-19T21:50:43.962Z,24.47
2022-11-19T21:53:11.938Z,23.00
2022-11-19T21:55:38.890Z,23.33
2022-11-19T21:58:06.519Z,21.60
2022-11-19T22:00:34.020Z,22.17
2022-11-19T22:03:00.821Z,22.80
2022-11-19T22:05:28.114Z,25.17
2022-11-19T22:07:57.625Z,22.83
2022-11-19T22:10:24.222Z,23.67
2022-11-19T22:12:51.150Z,26.23
2022-11-19T22:15:18.048Z,21.40
2022-11-19T22:17:44.758Z,21.17
2022-11-19T22:20:12.533Z,83.43
2022-11-19T22:22:39.334Z,117.70
2022-11-19T22:25:06.179Z,36.27
2022-11-19T22:27:33.034Z,24.27
2022-11-19T22:30:03.110Z,21.40
2022-11-19T22:32:32.504Z,21.30
2022-11-19T22:35:00.282Z,22.03
2022-11-19T22:37:26.911Z,20.30
2022-11-19T22:39:53.522Z,21.60
2022-11-19T22:42:20.331Z,20.30
2022-11-19T22:44:47.153Z,20.00
2022-11-19T22:47:13.819Z,20.07
2022-11-19T22:49:40.693Z,21.63
2022-11-19T22:52:07.417Z,17.53
2022-11-19T22:54:40.176Z,19.50
2022-11-19T22:57:08.217Z,17.70
2022-11-19T22:59:35.078Z,19.73
2022-11-19T23:02:01.878Z,24.30
2022-11-19T23:04:28.600Z,25.73
2022-11-19T23:06:55.555Z,33.60
2022-11-19T23:09:22.564Z,26.13
2022-11-19T23:11:49.603Z,31.33
2022-11-19T23:14:17.676Z,29.90
2022-11-19T23:16:44.930Z,21.43
2022-11-19T23:19:14.151Z,21.80
2022-11-19T23:21:41.129Z,20.50
2022-11-19T23:24:09.130Z,18.27
2022-11-19T23:26:36.374Z,17.63
2022-11-19T23:29:03.964Z,15.73
2022-11-19T23:31:36.683Z,19.67
2022-11-19T23:34:04.994Z,19.07
2022-11-19T23:36:33.963Z,17.10
2022-11-19T23:39:01.221Z,18.13
2022-11-19T23:41:28.271Z,20.17
2022-11-19T23:43:56.091Z,16.87
2022-11-19T23:46:25.389Z,16.70
2022-11-19T23:48:52.895Z,16.97
2022-11-19T23:51:22.767Z,18.90
2022-11-19T23:53:49.733Z,17.33
2022-11-19T23:56:18.071Z,18.33
2022-11-19T23:58:45.032Z,17.40
